TimeEDT,TemperatureF,Dew PointF,Humidity,Sea Level PressureIn,VisibilityMPH,Wind Direction,Wind SpeedMPH,Gust SpeedMPH,PrecipitationIn,Events,Conditions,WindDirDegrees,DateUTC
12:12 AM,69.8,53.6,56,29.76,10.0,South,20.7,27.6,N/A,,Scattered Clouds,190,2012-10-26 04:12:00
12:32 AM,69.8,53.6,56,29.76,10.0,SSW,17.3,25.3,N/A,,Mostly Cloudy,200,2012-10-26 04:32:00
12:52 AM,69.8,53.6,56,29.77,10.0,SSW,20.7,25.3,N/A,,Scattered Clouds,200,2012-10-26 04:52:00
1:12 AM,68.0,53.6,60,29.78,10.0,SSW,17.3,23.0,N/A,,Mostly Cloudy,210,2012-10-26 05:12:00
1:32 AM,66.2,57.2,73,29.81,10.0,West,19.6,28.8,N/A,,Mostly Cloudy,270,2012-10-26 05:32:00
1:52 AM,62.6,55.4,77,29.84,10.0,West,19.6,28.8,N/A,,Overcast,280,2012-10-26 05:52:00
2:12 AM,57.2,50.0,77,29.87,10.0,West,17.3,32.2,N/A,,Overcast,260,2012-10-26 06:12:00
2:32 AM,55.4,50.0,82,29.88,10.0,West,18.4,26.5,N/A,,Overcast,270,2012-10-26 06:32:00
2:52 AM,53.6,50.0,88,29.91,10.0,West,15.0,21.9,N/A,,Overcast,260,2012-10-26 06:52:00
3:12 AM,51.8,50.0,94,29.93,5.0,West,16.1,23.0,N/A,,Overcast,280,2012-10-26 07:12:00
3:33 AM,51.8,48.2,88,29.93,7.0,West,9.2,-,N/A,,Overcast,280,2012-10-26 07:33:00
3:53 AM,50.0,48.2,94,29.95,7.0,West,13.8,-,N/A,,Light Drizzle,270,2012-10-26 07:53:00
4:13 AM,50.0,50.0,100,29.98,10.0,West,10.4,18.4,N/A,,Overcast,260,2012-10-26 08:13:00
4:33 AM,50.0,48.2,94,30.01,7.0,West,13.8,20.7,N/A,Rain,Light Rain,270,2012-10-26 08:33:00
4:53 AM,48.2,46.4,93,30.01,10.0,West,13.8,19.6,N/A,Rain,Light Rain,270,2012-10-26 08:53:00
5:13 AM,46.4,46.4,100,30.00,10.0,WNW,10.4,-,N/A,,Overcast,300,2012-10-26 09:13:00
5:33 AM,46.4,46.4,100,30.01,10.0,NW,12.7,18.4,N/A,Rain,Light Rain,310,2012-10-26 09:33:00
5:53 AM,46.4,44.6,93,30.03,10.0,WNW,12.7,19.6,N/A,,Overcast,290,2012-10-26 09:53:00
6:13 AM,46.4,44.6,93,30.05,10.0,NW,11.5,16.1,N/A,,Overcast,310,2012-10-26 10:13:00
6:33 AM,46.4,42.8,87,30.06,10.0,NW,15.0,20.7,N/A,,Overcast,310,2012-10-26 10:33:00
6:54 AM,46.4,42.8,87,30.08,10.0,NW,13.8,21.9,N/A,,Mostly Cloudy,310,2012-10-26 10:54:00
7:14 AM,46.4,42.8,87,30.09,10.0,WNW,6.9,-,N/A,,Scattered Clouds,300,2012-10-26 11:14:00
7:34 AM,46.4,42.8,87,30.10,10.0,WNW,8.1,-,N/A,,Scattered Clouds,300,2012-10-26 11:34:00
7:54 AM,44.6,42.8,93,30.08,10.0,NW,10.4,-,N/A,,Mostly Cloudy,320,2012-10-26 11:54:00
8:14 AM,44.6,42.8,93,30.12,10.0,WNW,9.2,-,N/A,,Mostly Cloudy,300,2012-10-26 12:14:00
8:49 AM,44.6,41.0,87,30.14,10.0,NW,8.1,-,N/A,,Overcast,320,2012-10-26 12:49:00
9:50 AM,44.6,39.2,81,30.17,10.0,NW,8.1,-,N/A,,Overcast,310,2012-10-26 13:50:00
10:10 AM,44.6,37.4,76,30.18,10.0,NW,12.7,-,N/A,,Overcast,310,2012-10-26 14:10:00
10:30 AM,44.6,37.4,76,30.19,10.0,NW,10.4,-,N/A,,Overcast,320,2012-10-26 14:30:00
10:50 AM,44.6,35.6,71,30.20,10.0,NNW,8.1,-,N/A,,Overcast,340,2012-10-26 14:50:00
11:10 AM,46.4,37.4,71,30.19,10.0,NW,6.9,-,N/A,,Overcast,320,2012-10-26 15:10:00
11:30 AM,46.4,37.4,71,30.20,10.0,NW,8.1,-,N/A,,Overcast,310,2012-10-26 15:30:00
11:50 AM,46.4,37.4,71,30.21,10.0,WNW,8.1,-,N/A,,Overcast,290,2012-10-26 15:50:00
12:10 PM,46.4,39.2,76,30.21,10.0,West,9.2,-,N/A,,Overcast,280,2012-10-26 16:10:00
12:30 PM,46.4,37.4,71,30.22,10.0,WNW,8.1,-,N/A,,Overcast,300,2012-10-26 16:30:00
12:51 PM,48.2,35.6,62,30.22,10.0,WNW,10.4,-,N/A,,Overcast,300,2012-10-26 16:51:00
1:11 PM,48.2,35.6,62,30.22,10.0,NW,9.2,-,N/A,,Mostly Cloudy,310,2012-10-26 17:11:00
1:31 PM,48.2,33.8,58,30.21,10.0,WNW,8.1,-,N/A,,Scattered Clouds,290,2012-10-26 17:31:00
1:51 PM,51.8,35.6,54,30.21,10.0,NW,5.8,-,N/A,,Mostly Cloudy,320,2012-10-26 17:51:00
2:11 PM,51.8,35.6,54,30.21,10.0,WNW,11.5,-,N/A,,Mostly Cloudy,300,2012-10-26 18:11:00
2:31 PM,50.0,33.8,54,30.21,10.0,NW,6.9,-,N/A,,Scattered Clouds,320,2012-10-26 18:31:00
2:51 PM,50.0,32.0,50,30.22,10.0,WNW,6.9,-,N/A,,Clear,300,2012-10-26 18:51:00
3:11 PM,50.0,33.8,54,30.21,10.0,NW,6.9,-,N/A,,Clear,310,2012-10-26 19:11:00
3:32 PM,50.0,33.8,54,30.21,10.0,WNW,5.8,-,N/A,,Clear,300,2012-10-26 19:32:00
3:52 PM,50.0,33.8,54,30.21,10.0,NW,9.2,-,N/A,,Clear,310,2012-10-26 19:52:00
4:12 PM,50.0,33.8,54,30.21,10.0,West,6.9,-,N/A,,Clear,280,2012-10-26 20:12:00
4:32 PM,50.0,32.0,50,30.22,10.0,North,4.6,-,N/A,,Clear,350,2012-10-26 20:32:00
4:52 PM,50.0,33.8,54,30.22,10.0,NW,6.9,-,N/A,,Clear,320,2012-10-26 20:52:00
5:12 PM,50.0,32.0,50,30.22,10.0,NW,5.8,-,N/A,,Clear,320,2012-10-26 21:12:00
5:32 PM,48.2,32.0,54,30.22,10.0,NNW,3.5,-,N/A,,Clear,340,2012-10-26 21:32:00
5:52 PM,46.4,32.0,57,30.22,10.0,NNW,3.5,-,N/A,,Clear,340,2012-10-26 21:52:00
6:12 PM,46.4,33.8,62,30.22,10.0,Calm,Calm,-,N/A,,Clear,0,2012-10-26 22:12:00
6:33 PM,44.6,32.0,61,30.22,10.0,NW,5.8,-,N/A,,Clear,310,2012-10-26 22:33:00
6:53 PM,42.8,33.8,70,30.22,10.0,NW,5.8,-,N/A,,Clear,320,2012-10-26 22:53:00
7:13 PM,42.8,33.8,70,30.22,10.0,NNW,4.6,-,N/A,,Clear,330,2012-10-26 23:13:00
7:33 PM,44.6,33.8,66,30.22,10.0,NNW,4.6,-,N/A,,Clear,330,2012-10-26 23:33:00
7:53 PM,44.6,33.8,66,30.23,10.0,NNW,3.5,-,N/A,,Clear,340,2012-10-26 23:53:00
8:13 PM,42.8,35.6,76,30.24,10.0,NNW,4.6,-,N/A,,Clear,330,2012-10-27 00:13:00
8:33 PM,44.6,33.8,66,30.23,10.0,NNW,4.6,-,N/A,,Clear,340,2012-10-27 00:33:00
8:53 PM,44.6,33.8,66,30.24,10.0,NNW,4.6,-,N/A,,Clear,330,2012-10-27 00:53:00
9:13 PM,42.8,33.8,70,30.24,10.0,NNW,4.6,-,N/A,,Clear,340,2012-10-27 01:13:00
9:33 PM,44.6,33.8,66,30.24,10.0,NNW,4.6,-,N/A,,Clear,340,2012-10-27 01:33:00
10:14 PM,42.8,33.8,70,30.24,10.0,North,3.5,-,N/A,,Clear,360,2012-10-27 02:14:00
10:34 PM,42.8,35.6,76,30.24,10.0,NNW,3.5,-,N/A,,Clear,340,2012-10-27 02:34:00
10:54 PM,42.8,35.6,76,30.25,10.0,NNW,3.5,-,N/A,,Clear,340,2012-10-27 02:54:00
11:14 PM,42.8,35.6,76,30.24,10.0,NNW,4.6,-,N/A,,Clear,330,2012-10-27 03:14:00
11:34 PM,42.8,35.6,76,30.25,10.0,NNW,5.8,-,N/A,,Clear,330,2012-10-27 03:34:00
11:54 PM,42.8,33.8,70,30.24,10.0,NNW,8.1,-,N/A,,Clear,330,2012-10-27 03:54:00